sensor_id;sensor_type;location;lat;lon;timestamp;P1;durP1;ratioP1;P2;durP2;ratioP2
55913;SDS011;58179;48.776;9.124;2022-12-17T00:01:16;39.28;;;24.20;;
55913;SDS011;58179;48.776;9.124;2022-12-17T00:04:00;35.60;;;21.85;;
55913;SDS011;58179;48.776;9.124;2022-12-17T00:06:45;38.00;;;22.33;;
55913;SDS011;58179;48.776;9.124;2022-12-17T00:09:30;37.83;;;24.00;;
55913;SDS011;58179;48.776;9.124;2022-12-17T00:12:15;40.67;;;24.55;;
55913;SDS011;58179;48.776;9.124;2022-12-17T00:14:59;46.03;;;27.52;;
55913;SDS011;58179;48.776;9.124;2022-12-17T00:17:45;40.38;;;23.63;;
55913;SDS011;58179;48.776;9.124;2022-12-17T00:20:30;41.80;;;24.00;;
55913;SDS011;58179;48.776;9.124;2022-12-17T00:23:15;39.22;;;23.13;;
55913;SDS011;58179;48.776;9.124;2022-12-17T00:25:59;53.42;;;31.02;;
55913;SDS011;58179;48.776;9.124;2022-12-17T00:28:44;47.00;;;26.83;;
55913;SDS011;58179;48.776;9.124;2022-12-17T00:31:28;41.40;;;25.00;;
55913;SDS011;58179;48.776;9.124;2022-12-17T00:34:15;43.40;;;24.15;;
55913;SDS011;58179;48.776;9.124;2022-12-17T00:37:01;39.47;;;23.77;;
55913;SDS011;58179;48.776;9.124;2022-12-17T00:39:45;43.80;;;25.90;;
55913;SDS011;58179;48.776;9.124;2022-12-17T00:42:30;41.20;;;25.35;;
55913;SDS011;58179;48.776;9.124;2022-12-17T00:45:14;47.85;;;26.13;;
55913;SDS011;58179;48.776;9.124;2022-12-17T00:47:59;45.70;;;25.83;;
55913;SDS011;58179;48.776;9.124;2022-12-17T00:50:45;40.30;;;23.17;;
55913;SDS011;58179;48.776;9.124;2022-12-17T00:53:34;43.78;;;22.65;;
55913;SDS011;58179;48.776;9.124;2022-12-17T00:56:18;42.72;;;24.27;;
55913;SDS011;58179;48.776;9.124;2022-12-17T00:59:03;38.47;;;21.88;;
55913;SDS011;58179;48.776;9.124;2022-12-17T01:02:01;40.78;;;23.42;;
55913;SDS011;58179;48.776;9.124;2022-12-17T01:04:46;45.22;;;25.02;;
55913;SDS011;58179;48.776;9.124;2022-12-17T01:07:32;38.50;;;22.13;;
55913;SDS011;58179;48.776;9.124;2022-12-17T01:10:17;37.67;;;21.67;;
55913;SDS011;58179;48.776;9.124;2022-12-17T01:13:01;38.92;;;22.42;;
55913;SDS011;58179;48.776;9.124;2022-12-17T01:15:46;33.75;;;19.98;;
55913;SDS011;58179;48.776;9.124;2022-12-17T01:18:31;33.80;;;20.38;;
55913;SDS011;58179;48.776;9.124;2022-12-17T01:21:15;31.23;;;18.98;;
55913;SDS011;58179;48.776;9.124;2022-12-17T01:24:01;42.78;;;23.52;;
55913;SDS011;58179;48.776;9.124;2022-12-17T01:26:46;45.42;;;24.58;;
55913;SDS011;58179;48.776;9.124;2022-12-17T01:29:30;39.65;;;22.60;;
55913;SDS011;58179;48.776;9.124;2022-12-17T01:32:15;38.17;;;21.40;;
55913;SDS011;58179;48.776;9.124;2022-12-17T01:34:59;33.90;;;19.13;;
55913;SDS011;58179;48.776;9.124;2022-12-17T01:37:44;36.50;;;20.67;;
55913;SDS011;58179;48.776;9.124;2022-12-17T01:40:30;35.67;;;20.23;;
55913;SDS011;58179;48.776;9.124;2022-12-17T01:43:29;35.30;;;19.60;;
55913;SDS011;58179;48.776;9.124;2022-12-17T01:46:16;31.25;;;17.55;;
55913;SDS011;58179;48.776;9.124;2022-12-17T01:49:01;30.60;;;18.02;;
55913;SDS011;58179;48.776;9.124;2022-12-17T01:51:46;32.08;;;18.08;;
55913;SDS011;58179;48.776;9.124;2022-12-17T01:54:34;32.05;;;18.00;;
55913;SDS011;58179;48.776;9.124;2022-12-17T01:57:20;31.08;;;17.95;;
55913;SDS011;58179;48.776;9.124;2022-12-17T02:00:07;38.33;;;19.67;;
55913;SDS011;58179;48.776;9.124;2022-12-17T02:02:54;31.35;;;18.38;;
55913;SDS011;58179;48.776;9.124;2022-12-17T02:05:40;36.47;;;19.70;;
55913;SDS011;58179;48.776;9.124;2022-12-17T02:08:34;32.47;;;18.55;;
55913;SDS011;58179;48.776;9.124;2022-12-17T02:11:27;33.13;;;19.70;;
55913;SDS011;58179;48.776;9.124;2022-12-17T02:14:28;35.40;;;18.48;;
55913;SDS011;58179;48.776;9.124;2022-12-17T02:17:20;34.75;;;20.10;;
55913;SDS011;58179;48.776;9.124;2022-12-17T02:20:15;31.00;;;17.80;;
55913;SDS011;58179;48.776;9.124;2022-12-17T02:23:09;33.63;;;19.42;;
55913;SDS011;58179;48.776;9.124;2022-12-17T02:26:10;33.00;;;19.08;;
55913;SDS011;58179;48.776;9.124;2022-12-17T02:29:01;34.17;;;18.30;;
55913;SDS011;58179;48.776;9.124;2022-12-17T02:31:49;30.83;;;17.40;;
55913;SDS011;58179;48.776;9.124;2022-12-17T02:34:41;33.22;;;19.88;;
55913;SDS011;58179;48.776;9.124;2022-12-17T02:37:27;34.50;;;19.45;;
55913;SDS011;58179;48.776;9.124;2022-12-17T02:40:12;33.03;;;19.30;;
55913;SDS011;58179;48.776;9.124;2022-12-17T02:42:56;35.20;;;19.42;;
55913;SDS011;58179;48.776;9.124;2022-12-17T02:45:43;30.70;;;17.50;;
55913;SDS011;58179;48.776;9.124;2022-12-17T02:48:28;33.10;;;18.67;;
55913;SDS011;58179;48.776;9.124;2022-12-17T02:51:14;34.50;;;19.85;;
55913;SDS011;58179;48.776;9.124;2022-12-17T02:54:00;33.85;;;18.85;;
55913;SDS011;58179;48.776;9.124;2022-12-17T02:56:46;28.95;;;16.88;;
55913;SDS011;58179;48.776;9.124;2022-12-17T02:59:30;38.10;;;20.38;;
55913;SDS011;58179;48.776;9.124;2022-12-17T03:02:17;33.67;;;20.38;;
55913;SDS011;58179;48.776;9.124;2022-12-17T03:05:01;38.45;;;19.13;;
55913;SDS011;58179;48.776;9.124;2022-12-17T03:07:46;33.05;;;18.13;;
55913;SDS011;58179;48.776;9.124;2022-12-17T03:10:31;37.17;;;20.38;;
55913;SDS011;58179;48.776;9.124;2022-12-17T03:13:22;33.92;;;19.95;;
55913;SDS011;58179;48.776;9.124;2022-12-17T03:16:08;36.90;;;19.20;;
55913;SDS011;58179;48.776;9.124;2022-12-17T03:18:55;39.50;;;20.63;;
55913;SDS011;58179;48.776;9.124;2022-12-17T03:21:40;34.83;;;19.92;;
55913;SDS011;58179;48.776;9.124;2022-12-17T03:24:25;36.78;;;20.27;;
55913;SDS011;58179;48.776;9.124;2022-12-17T03:27:10;39.00;;;20.90;;
55913;SDS011;58179;48.776;9.124;2022-12-17T03:29:55;36.53;;;19.53;;
55913;SDS011;58179;48.776;9.124;2022-12-17T03:32:40;38.38;;;21.00;;
55913;SDS011;58179;48.776;9.124;2022-12-17T03:35:26;45.72;;;24.05;;
55913;SDS011;58179;48.776;9.124;2022-12-17T03:38:10;39.65;;;20.92;;
55913;SDS011;58179;48.776;9.124;2022-12-17T03:40:55;38.30;;;21.40;;
55913;SDS011;58179;48.776;9.124;2022-12-17T03:43:41;39.60;;;21.98;;
55913;SDS011;58179;48.776;9.124;2022-12-17T03:46:26;38.90;;;22.30;;
55913;SDS011;58179;48.776;9.124;2022-12-17T03:49:10;38.38;;;22.27;;
55913;SDS011;58179;48.776;9.124;2022-12-17T03:51:56;41.50;;;22.35;;
55913;SDS011;58179;48.776;9.124;2022-12-17T03:54:41;34.53;;;20.25;;
55913;SDS011;58179;48.776;9.124;2022-12-17T03:57:25;37.75;;;21.55;;
55913;SDS011;58179;48.776;9.124;2022-12-17T04:00:10;35.05;;;20.75;;
55913;SDS011;58179;48.776;9.124;2022-12-17T04:02:56;34.58;;;20.88;;
55913;SDS011;58179;48.776;9.124;2022-12-17T04:05:41;33.75;;;20.27;;
55913;SDS011;58179;48.776;9.124;2022-12-17T04:08:27;31.02;;;18.92;;
55913;SDS011;58179;48.776;9.124;2022-12-17T04:11:11;34.42;;;21.00;;
55913;SDS011;58179;48.776;9.124;2022-12-17T04:13:56;34.17;;;20.65;;
55913;SDS011;58179;48.776;9.124;2022-12-17T04:16:41;33.45;;;19.88;;
55913;SDS011;58179;48.776;9.124;2022-12-17T04:19:26;31.55;;;19.15;;
55913;SDS011;58179;48.776;9.124;2022-12-17T04:22:10;28.90;;;18.50;;
55913;SDS011;58179;48.776;9.124;2022-12-17T04:24:56;26.50;;;17.70;;
55913;SDS011;58179;48.776;9.124;2022-12-17T04:27:41;26.63;;;16.35;;
55913;SDS011;58179;48.776;9.124;2022-12-17T04:30:26;24.52;;;14.73;;
55913;SDS011;58179;48.776;9.124;2022-12-17T04:33:10;26.63;;;15.77;;
55913;SDS011;58179;48.776;9.124;2022-12-17T04:35:55;31.65;;;18.92;;
55913;SDS011;58179;48.776;9.124;2022-12-17T04:38:40;30.45;;;20.42;;
55913;SDS011;58179;48.776;9.124;2022-12-17T04:41:26;31.42;;;20.73;;
55913;SDS011;58179;48.776;9.124;2022-12-17T04:44:10;28.33;;;17.50;;
55913;SDS011;58179;48.776;9.124;2022-12-17T04:46:55;29.63;;;19.38;;
55913;SDS011;58179;48.776;9.124;2022-12-17T04:49:40;29.30;;;19.10;;
55913;SDS011;58179;48.776;9.124;2022-12-17T04:52:24;31.58;;;18.83;;
55913;SDS011;58179;48.776;9.124;2022-12-17T04:55:09;32.95;;;19.92;;
55913;SDS011;58179;48.776;9.124;2022-12-17T04:58:00;26.80;;;17.65;;
55913;SDS011;58179;48.776;9.124;2022-12-17T05:00:45;25.95;;;16.75;;
55913;SDS011;58179;48.776;9.124;2022-12-17T05:03:30;24.40;;;16.03;;
55913;SDS011;58179;48.776;9.124;2022-12-17T05:06:15;25.70;;;16.13;;
55913;SDS011;58179;48.776;9.124;2022-12-17T05:08:59;22.60;;;15.10;;
55913;SDS011;58179;48.776;9.124;2022-12-17T05:11:44;25.77;;;16.50;;
55913;SDS011;58179;48.776;9.124;2022-12-17T05:14:30;27.42;;;17.02;;
55913;SDS011;58179;48.776;9.124;2022-12-17T05:17:14;28.10;;;17.87;;
55913;SDS011;58179;48.776;9.124;2022-12-17T05:19:59;35.67;;;21.27;;
55913;SDS011;58179;48.776;9.124;2022-12-17T05:22:44;33.83;;;20.92;;
55913;SDS011;58179;48.776;9.124;2022-12-17T05:25:29;34.40;;;21.85;;
55913;SDS011;58179;48.776;9.124;2022-12-17T05:28:14;63.47;;;33.30;;
55913;SDS011;58179;48.776;9.124;2022-12-17T05:31:00;67.95;;;37.35;;
55913;SDS011;58179;48.776;9.124;2022-12-17T05:33:45;51.40;;;30.13;;
55913;SDS011;58179;48.776;9.124;2022-12-17T05:36:29;55.75;;;30.30;;
55913;SDS011;58179;48.776;9.124;2022-12-17T05:39:14;58.83;;;32.40;;
55913;SDS011;58179;48.776;9.124;2022-12-17T05:41:59;79.27;;;42.83;;
55913;SDS011;58179;48.776;9.124;2022-12-17T05:44:43;70.00;;;39.88;;
55913;SDS011;58179;48.776;9.124;2022-12-17T05:47:29;80.22;;;42.20;;
55913;SDS011;58179;48.776;9.124;2022-12-17T05:50:18;80.87;;;43.70;;
55913;SDS011;58179;48.776;9.124;2022-12-17T05:53:03;66.03;;;36.85;;
55913;SDS011;58179;48.776;9.124;2022-12-17T05:55:48;75.50;;;39.60;;
55913;SDS011;58179;48.776;9.124;2022-12-17T05:58:34;101.65;;;47.28;;
55913;SDS011;58179;48.776;9.124;2022-12-17T06:01:18;79.65;;;41.72;;
55913;SDS011;58179;48.776;9.124;2022-12-17T06:04:04;76.03;;;39.05;;
55913;SDS011;58179;48.776;9.124;2022-12-17T06:06:48;62.30;;;35.63;;
55913;SDS011;58179;48.776;9.124;2022-12-17T06:09:33;79.07;;;36.60;;
55913;SDS011;58179;48.776;9.124;2022-12-17T06:12:18;73.63;;;36.87;;
55913;SDS011;58179;48.776;9.124;2022-12-17T06:15:02;57.58;;;32.58;;
55913;SDS011;58179;48.776;9.124;2022-12-17T06:17:51;88.22;;;38.85;;
55913;SDS011;58179;48.776;9.124;2022-12-17T06:20:37;60.88;;;32.97;;
55913;SDS011;58179;48.776;9.124;2022-12-17T06:23:22;59.28;;;32.47;;
55913;SDS011;58179;48.776;9.124;2022-12-17T06:26:06;59.55;;;31.30;;
55913;SDS011;58179;48.776;9.124;2022-12-17T06:28:51;68.67;;;35.40;;
55913;SDS011;58179;48.776;9.124;2022-12-17T06:31:53;57.65;;;30.85;;
55913;SDS011;58179;48.776;9.124;2022-12-17T06:34:37;60.97;;;33.33;;
55913;SDS011;58179;48.776;9.124;2022-12-17T06:37:23;69.03;;;36.07;;
55913;SDS011;58179;48.776;9.124;2022-12-17T06:40:08;73.18;;;38.42;;
55913;SDS011;58179;48.776;9.124;2022-12-17T06:42:54;68.32;;;35.47;;
55913;SDS011;58179;48.776;9.124;2022-12-17T06:45:39;73.80;;;38.30;;
55913;SDS011;58179;48.776;9.124;2022-12-17T06:48:24;70.17;;;33.73;;
55913;SDS011;58179;48.776;9.124;2022-12-17T06:51:09;60.35;;;30.75;;
55913;SDS011;58179;48.776;9.124;2022-12-17T06:53:54;58.58;;;30.92;;
55913;SDS011;58179;48.776;9.124;2022-12-17T06:56:39;54.40;;;29.23;;
55913;SDS011;58179;48.776;9.124;2022-12-17T06:59:23;62.63;;;32.42;;
55913;SDS011;58179;48.776;9.124;2022-12-17T07:02:28;87.43;;;42.60;;
55913;SDS011;58179;48.776;9.124;2022-12-17T07:05:12;66.10;;;36.38;;
55913;SDS011;58179;48.776;9.124;2022-12-17T07:07:57;57.92;;;32.15;;
55913;SDS011;58179;48.776;9.124;2022-12-17T07:10:43;53.88;;;28.92;;
55913;SDS011;58179;48.776;9.124;2022-12-17T07:13:28;59.53;;;32.38;;
55913;SDS011;58179;48.776;9.124;2022-12-17T07:16:12;73.57;;;36.38;;
55913;SDS011;58179;48.776;9.124;2022-12-17T07:18:57;67.65;;;34.25;;
55913;SDS011;58179;48.776;9.124;2022-12-17T07:21:42;57.75;;;31.05;;
55913;SDS011;58179;48.776;9.124;2022-12-17T07:24:26;60.50;;;32.00;;
55913;SDS011;58179;48.776;9.124;2022-12-17T07:27:12;88.63;;;40.22;;
55913;SDS011;58179;48.776;9.124;2022-12-17T07:29:57;88.75;;;43.78;;
55913;SDS011;58179;48.776;9.124;2022-12-17T07:32:41;78.45;;;40.30;;
55913;SDS011;58179;48.776;9.124;2022-12-17T07:35:26;85.03;;;43.00;;
55913;SDS011;58179;48.776;9.124;2022-12-17T07:38:10;86.63;;;41.80;;
55913;SDS011;58179;48.776;9.124;2022-12-17T07:40:57;82.30;;;41.47;;
55913;SDS011;58179;48.776;9.124;2022-12-17T07:43:43;106.53;;;47.97;;
55913;SDS011;58179;48.776;9.124;2022-12-17T07:46:27;102.65;;;49.85;;
55913;SDS011;58179;48.776;9.124;2022-12-17T07:49:12;99.85;;;46.22;;
55913;SDS011;58179;48.776;9.124;2022-12-17T07:51:56;95.43;;;45.33;;
55913;SDS011;58179;48.776;9.124;2022-12-17T07:54:42;83.68;;;43.00;;
55913;SDS011;58179;48.776;9.124;2022-12-17T07:57:26;92.78;;;43.42;;
55913;SDS011;58179;48.776;9.124;2022-12-17T08:00:13;77.15;;;38.72;;
55913;SDS011;58179;48.776;9.124;2022-12-17T08:02:58;67.95;;;34.53;;
55913;SDS011;58179;48.776;9.124;2022-12-17T08:05:43;111.53;;;50.42;;
55913;SDS011;58179;48.776;9.124;2022-12-17T08:08:28;126.25;;;57.13;;
55913;SDS011;58179;48.776;9.124;2022-12-17T08:11:13;110.72;;;53.00;;
55913;SDS011;58179;48.776;9.124;2022-12-17T08:13:57;112.82;;;50.35;;
55913;SDS011;58179;48.776;9.124;2022-12-17T08:16:43;118.10;;;52.87;;
55913;SDS011;58179;48.776;9.124;2022-12-17T08:19:28;101.90;;;48.33;;
55913;SDS011;58179;48.776;9.124;2022-12-17T08:22:12;95.75;;;45.67;;
55913;SDS011;58179;48.776;9.124;2022-12-17T08:24:57;105.75;;;47.42;;
55913;SDS011;58179;48.776;9.124;2022-12-17T08:27:41;101.93;;;48.85;;
55913;SDS011;58179;48.776;9.124;2022-12-17T08:30:26;99.00;;;46.47;;
55913;SDS011;58179;48.776;9.124;2022-12-17T08:33:12;111.07;;;48.42;;
55913;SDS011;58179;48.776;9.124;2022-12-17T08:35:56;102.97;;;48.83;;
55913;SDS011;58179;48.776;9.124;2022-12-17T08:38:41;102.22;;;47.97;;
55913;SDS011;58179;48.776;9.124;2022-12-17T08:41:26;111.20;;;51.20;;
55913;SDS011;58179;48.776;9.124;2022-12-17T08:44:11;88.20;;;43.28;;
55913;SDS011;58179;48.776;9.124;2022-12-17T08:46:55;81.93;;;40.70;;
55913;SDS011;58179;48.776;9.124;2022-12-17T08:49:41;73.10;;;36.37;;
55913;SDS011;58179;48.776;9.124;2022-12-17T08:52:26;65.15;;;33.17;;
55913;SDS011;58179;48.776;9.124;2022-12-17T08:55:11;68.65;;;34.65;;
55913;SDS011;58179;48.776;9.124;2022-12-17T08:57:56;80.80;;;39.75;;
55913;SDS011;58179;48.776;9.124;2022-12-17T09:00:41;104.97;;;48.10;;
55913;SDS011;58179;48.776;9.124;2022-12-17T09:03:27;95.32;;;46.45;;
55913;SDS011;58179;48.776;9.124;2022-12-17T09:06:13;86.18;;;42.00;;
55913;SDS011;58179;48.776;9.124;2022-12-17T09:08:57;92.57;;;43.80;;
55913;SDS011;58179;48.776;9.124;2022-12-17T09:11:42;103.25;;;46.38;;
55913;SDS011;58179;48.776;9.124;2022-12-17T09:14:31;79.43;;;39.42;;
55913;SDS011;58179;48.776;9.124;2022-12-17T09:17:15;69.03;;;36.50;;
55913;SDS011;58179;48.776;9.124;2022-12-17T09:20:00;69.53;;;35.40;;
55913;SDS011;58179;48.776;9.124;2022-12-17T09:22:46;78.20;;;39.00;;
55913;SDS011;58179;48.776;9.124;2022-12-17T09:25:31;97.57;;;47.03;;
55913;SDS011;58179;48.776;9.124;2022-12-17T09:28:15;76.43;;;40.80;;
55913;SDS011;58179;48.776;9.124;2022-12-17T09:31:00;98.40;;;47.50;;
55913;SDS011;58179;48.776;9.124;2022-12-17T09:33:45;91.40;;;46.90;;
55913;SDS011;58179;48.776;9.124;2022-12-17T09:36:29;91.17;;;45.73;;
55913;SDS011;58179;48.776;9.124;2022-12-17T09:39:15;92.68;;;44.88;;
55913;SDS011;58179;48.776;9.124;2022-12-17T09:42:12;78.32;;;40.33;;
55913;SDS011;58179;48.776;9.124;2022-12-17T09:45:05;65.97;;;35.95;;
55913;SDS011;58179;48.776;9.124;2022-12-17T09:47:57;103.35;;;48.97;;
55913;SDS011;58179;48.776;9.124;2022-12-17T09:50:49;90.18;;;44.25;;
55913;SDS011;58179;48.776;9.124;2022-12-17T09:53:35;84.75;;;42.88;;
55913;SDS011;58179;48.776;9.124;2022-12-17T09:56:27;74.60;;;39.08;;
55913;SDS011;58179;48.776;9.124;2022-12-17T09:59:16;94.18;;;44.95;;
55913;SDS011;58179;48.776;9.124;2022-12-17T10:02:10;74.80;;;38.23;;
55913;SDS011;58179;48.776;9.124;2022-12-17T10:04:57;65.70;;;35.67;;
55913;SDS011;58179;48.776;9.124;2022-12-17T10:07:45;98.63;;;48.17;;
55913;SDS011;58179;48.776;9.124;2022-12-17T10:10:31;78.35;;;40.83;;
55913;SDS011;58179;48.776;9.124;2022-12-17T10:13:18;76.88;;;39.78;;
55913;SDS011;58179;48.776;9.124;2022-12-17T10:16:15;77.30;;;38.63;;
55913;SDS011;58179;48.776;9.124;2022-12-17T10:19:05;99.30;;;47.75;;
55913;SDS011;58179;48.776;9.124;2022-12-17T10:22:05;84.68;;;43.03;;
55913;SDS011;58179;48.776;9.124;2022-12-17T10:24:52;94.68;;;47.83;;
55913;SDS011;58179;48.776;9.124;2022-12-17T10:27:36;105.95;;;51.85;;
55913;SDS011;58179;48.776;9.124;2022-12-17T10:30:22;93.85;;;47.92;;
55913;SDS011;58179;48.776;9.124;2022-12-17T10:33:10;115.13;;;53.13;;
55913;SDS011;58179;48.776;9.124;2022-12-17T10:36:02;98.30;;;49.05;;
55913;SDS011;58179;48.776;9.124;2022-12-17T10:38:52;92.35;;;46.78;;
55913;SDS011;58179;48.776;9.124;2022-12-17T10:41:39;93.03;;;47.22;;
55913;SDS011;58179;48.776;9.124;2022-12-17T10:44:26;95.13;;;47.20;;
55913;SDS011;58179;48.776;9.124;2022-12-17T10:47:14;91.25;;;47.03;;
55913;SDS011;58179;48.776;9.124;2022-12-17T10:50:01;115.20;;;54.53;;
55913;SDS011;58179;48.776;9.124;2022-12-17T10:52:49;106.50;;;52.47;;
55913;SDS011;58179;48.776;9.124;2022-12-17T10:55:34;106.82;;;51.75;;
55913;SDS011;58179;48.776;9.124;2022-12-17T10:58:19;103.90;;;51.55;;
55913;SDS011;58179;48.776;9.124;2022-12-17T11:01:09;90.07;;;46.13;;
55913;SDS011;58179;48.776;9.124;2022-12-17T11:03:56;90.95;;;47.10;;
55913;SDS011;58179;48.776;9.124;2022-12-17T11:06:42;100.93;;;50.28;;
55913;SDS011;58179;48.776;9.124;2022-12-17T11:09:30;90.73;;;46.87;;
55913;SDS011;58179;48.776;9.124;2022-12-17T11:12:25;87.00;;;46.77;;
55913;SDS011;58179;48.776;9.124;2022-12-17T11:15:17;83.55;;;46.00;;
55913;SDS011;58179;48.776;9.124;2022-12-17T11:18:05;67.30;;;39.00;;
55913;SDS011;58179;48.776;9.124;2022-12-17T11:20:57;72.33;;;42.47;;
55913;SDS011;58179;48.776;9.124;2022-12-17T11:23:48;61.92;;;37.13;;
55913;SDS011;58179;48.776;9.124;2022-12-17T11:26:36;62.00;;;38.35;;
55913;SDS011;58179;48.776;9.124;2022-12-17T11:29:23;79.13;;;42.80;;
55913;SDS011;58179;48.776;9.124;2022-12-17T11:32:20;94.53;;;50.58;;
55913;SDS011;58179;48.776;9.124;2022-12-17T11:35:23;112.53;;;54.63;;
55913;SDS011;58179;48.776;9.124;2022-12-17T11:38:21;112.67;;;54.97;;
55913;SDS011;58179;48.776;9.124;2022-12-17T11:41:17;100.88;;;50.53;;
55913;SDS011;58179;48.776;9.124;2022-12-17T11:44:13;114.47;;;55.88;;
55913;SDS011;58179;48.776;9.124;2022-12-17T11:47:19;89.90;;;47.45;;
55913;SDS011;58179;48.776;9.124;2022-12-17T11:50:14;73.15;;;42.42;;
55913;SDS011;58179;48.776;9.124;2022-12-17T11:53:09;59.30;;;36.83;;
55913;SDS011;58179;48.776;9.124;2022-12-17T11:56:11;80.50;;;45.58;;
55913;SDS011;58179;48.776;9.124;2022-12-17T11:59:06;70.75;;;42.08;;
55913;SDS011;58179;48.776;9.124;2022-12-17T12:02:00;69.90;;;42.53;;
55913;SDS011;58179;48.776;9.124;2022-12-17T12:05:01;59.67;;;36.55;;
55913;SDS011;58179;48.776;9.124;2022-12-17T12:08:01;63.67;;;39.55;;
55913;SDS011;58179;48.776;9.124;2022-12-17T12:10:59;57.75;;;37.38;;
55913;SDS011;58179;48.776;9.124;2022-12-17T12:13:52;51.15;;;32.90;;
55913;SDS011;58179;48.776;9.124;2022-12-17T12:16:47;58.17;;;37.55;;
55913;SDS011;58179;48.776;9.124;2022-12-17T12:19:28;63.42;;;38.60;;
55913;SDS011;58179;48.776;9.124;2022-12-17T12:22:24;59.67;;;35.55;;
55913;SDS011;58179;48.776;9.124;2022-12-17T12:25:21;72.40;;;40.95;;
55913;SDS011;58179;48.776;9.124;2022-12-17T12:28:20;97.78;;;51.05;;
55913;SDS011;58179;48.776;9.124;2022-12-17T12:31:18;102.95;;;50.45;;
55913;SDS011;58179;48.776;9.124;2022-12-17T12:34:11;99.38;;;50.95;;
55913;SDS011;58179;48.776;9.124;2022-12-17T12:37:02;98.18;;;47.75;;
55913;SDS011;58179;48.776;9.124;2022-12-17T12:39:50;85.97;;;45.00;;
55913;SDS011;58179;48.776;9.124;2022-12-17T12:42:41;89.07;;;44.42;;
55913;SDS011;58179;48.776;9.124;2022-12-17T12:45:39;135.38;;;62.17;;
55913;SDS011;58179;48.776;9.124;2022-12-17T12:48:37;118.28;;;54.95;;
55913;SDS011;58179;48.776;9.124;2022-12-17T12:51:27;93.22;;;45.20;;
55913;SDS011;58179;48.776;9.124;2022-12-17T12:54:21;127.30;;;61.28;;
55913;SDS011;58179;48.776;9.124;2022-12-17T12:57:28;149.68;;;65.38;;
55913;SDS011;58179;48.776;9.124;2022-12-17T13:00:23;146.87;;;66.40;;
55913;SDS011;58179;48.776;9.124;2022-12-17T13:03:18;146.47;;;66.63;;
55913;SDS011;58179;48.776;9.124;2022-12-17T13:06:09;114.57;;;56.38;;
55913;SDS011;58179;48.776;9.124;2022-12-17T13:08:35;91.72;;;50.60;;
55913;SDS011;58179;48.776;9.124;2022-12-17T13:11:08;72.93;;;42.22;;
55913;SDS011;58179;48.776;9.124;2022-12-17T13:13:51;74.68;;;44.83;;
55913;SDS011;58179;48.776;9.124;2022-12-17T13:16:25;64.35;;;39.92;;
55913;SDS011;58179;48.776;9.124;2022-12-17T13:19:14;63.47;;;37.90;;
55913;SDS011;58179;48.776;9.124;2022-12-17T13:21:45;60.58;;;36.70;;
55913;SDS011;58179;48.776;9.124;2022-12-17T13:24:20;59.33;;;36.47;;
55913;SDS011;58179;48.776;9.124;2022-12-17T13:26:49;63.33;;;37.72;;
55913;SDS011;58179;48.776;9.124;2022-12-17T13:29:23;68.60;;;40.80;;
55913;SDS011;58179;48.776;9.124;2022-12-17T13:32:06;77.28;;;44.67;;
55913;SDS011;58179;48.776;9.124;2022-12-17T13:37:42;104.53;;;54.95;;
55913;SDS011;58179;48.776;9.124;2022-12-17T13:40:21;98.43;;;49.78;;
55913;SDS011;58179;48.776;9.124;2022-12-17T13:42:59;96.78;;;47.90;;
55913;SDS011;58179;48.776;9.124;2022-12-17T13:45:25;98.90;;;48.03;;
55913;SDS011;58179;48.776;9.124;2022-12-17T13:47:52;102.68;;;46.45;;
55913;SDS011;58179;48.776;9.124;2022-12-17T13:50:22;98.77;;;45.27;;
55913;SDS011;58179;48.776;9.124;2022-12-17T13:52:50;99.78;;;45.90;;
55913;SDS011;58179;48.776;9.124;2022-12-17T13:55:16;105.30;;;45.13;;
55913;SDS011;58179;48.776;9.124;2022-12-17T13:57:46;115.63;;;50.83;;
55913;SDS011;58179;48.776;9.124;2022-12-17T14:00:21;135.50;;;57.00;;
55913;SDS011;58179;48.776;9.124;2022-12-17T14:02:49;151.10;;;63.33;;
55913;SDS011;58179;48.776;9.124;2022-12-17T14:05:25;157.07;;;64.40;;
55913;SDS011;58179;48.776;9.124;2022-12-17T14:07:56;140.30;;;58.27;;
55913;SDS011;58179;48.776;9.124;2022-12-17T14:10:25;171.07;;;68.00;;
55913;SDS011;58179;48.776;9.124;2022-12-17T14:12:57;159.45;;;61.03;;
55913;SDS011;58179;48.776;9.124;2022-12-17T14:15:29;146.88;;;60.38;;
55913;SDS011;58179;48.776;9.124;2022-12-17T14:17:56;158.02;;;63.03;;
55913;SDS011;58179;48.776;9.124;2022-12-17T14:20:25;137.80;;;54.10;;
55913;SDS011;58179;48.776;9.124;2022-12-17T14:22:55;215.25;;;76.55;;
55913;SDS011;58179;48.776;9.124;2022-12-17T14:25:25;177.53;;;71.53;;
55913;SDS011;58179;48.776;9.124;2022-12-17T14:27:56;163.18;;;63.05;;
55913;SDS011;58179;48.776;9.124;2022-12-17T14:30:30;135.98;;;52.85;;
55913;SDS011;58179;48.776;9.124;2022-12-17T14:33:02;167.50;;;59.23;;
55913;SDS011;58179;48.776;9.124;2022-12-17T14:35:30;141.02;;;53.05;;
55913;SDS011;58179;48.776;9.124;2022-12-17T14:38:01;176.68;;;62.40;;
55913;SDS011;58179;48.776;9.124;2022-12-17T14:40:28;178.45;;;64.45;;
55913;SDS011;58179;48.776;9.124;2022-12-17T14:42:56;218.50;;;77.00;;
55913;SDS011;58179;48.776;9.124;2022-12-17T14:45:24;244.95;;;86.32;;
55913;SDS011;58179;48.776;9.124;2022-12-17T14:47:52;212.57;;;78.95;;
55913;SDS011;58179;48.776;9.124;2022-12-17T14:50:24;193.18;;;71.05;;
55913;SDS011;58179;48.776;9.124;2022-12-17T14:52:56;204.90;;;74.63;;
55913;SDS011;58179;48.776;9.124;2022-12-17T14:55:25;212.38;;;72.72;;
55913;SDS011;58179;48.776;9.124;2022-12-17T14:58:12;177.85;;;66.50;;
55913;SDS011;58179;48.776;9.124;2022-12-17T15:00:45;197.40;;;68.67;;
55913;SDS011;58179;48.776;9.124;2022-12-17T15:03:29;207.38;;;71.20;;
55913;SDS011;58179;48.776;9.124;2022-12-17T15:05:57;178.98;;;64.90;;
55913;SDS011;58179;48.776;9.124;2022-12-17T15:08:28;199.80;;;71.80;;
55913;SDS011;58179;48.776;9.124;2022-12-17T15:10:57;202.88;;;76.93;;
55913;SDS011;58179;48.776;9.124;2022-12-17T15:13:23;212.13;;;76.20;;
55913;SDS011;58179;48.776;9.124;2022-12-17T15:15:48;189.27;;;69.17;;
55913;SDS011;58179;48.776;9.124;2022-12-17T15:18:14;180.70;;;66.55;;
55913;SDS011;58179;48.776;9.124;2022-12-17T15:20:40;192.67;;;70.57;;
55913;SDS011;58179;48.776;9.124;2022-12-17T15:23:08;180.07;;;67.63;;
55913;SDS011;58179;48.776;9.124;2022-12-17T15:25:41;182.90;;;67.65;;
55913;SDS011;58179;48.776;9.124;2022-12-17T15:28:08;183.45;;;68.05;;
55913;SDS011;58179;48.776;9.124;2022-12-17T15:30:34;199.55;;;77.68;;
55913;SDS011;58179;48.776;9.124;2022-12-17T15:33:01;186.30;;;66.73;;
55913;SDS011;58179;48.776;9.124;2022-12-17T15:35:30;172.77;;;63.50;;
55913;SDS011;58179;48.776;9.124;2022-12-17T15:37:56;199.67;;;71.03;;
55913;SDS011;58179;48.776;9.124;2022-12-17T15:40:22;195.98;;;70.10;;
55913;SDS011;58179;48.776;9.124;2022-12-17T15:42:50;204.38;;;80.22;;
55913;SDS011;58179;48.776;9.124;2022-12-17T15:45:34;191.90;;;67.18;;
55913;SDS011;58179;48.776;9.124;2022-12-17T15:48:01;211.00;;;69.13;;
55913;SDS011;58179;48.776;9.124;2022-12-17T15:50:27;177.38;;;63.40;;
55913;SDS011;58179;48.776;9.124;2022-12-17T15:52:53;164.45;;;63.53;;
55913;SDS011;58179;48.776;9.124;2022-12-17T15:55:19;162.25;;;63.13;;
55913;SDS011;58179;48.776;9.124;2022-12-17T15:57:45;195.50;;;70.40;;
55913;SDS011;58179;48.776;9.124;2022-12-17T16:00:13;176.75;;;67.07;;